createdAt,value
2022-12-04T00:02:05.120Z,99141.75
2022-12-04T00:04:53.879Z,99141.69
2022-12-04T00:07:36.228Z,99137.31
2022-12-04T00:10:24.881Z,99138.50
2022-12-04T00:13:07.519Z,99142.13
2022-12-04T00:15:56.934Z,99142.50
2022-12-04T00:18:45.826Z,99149.06
2022-12-04T00:21:34.844Z,99146.22
2022-12-04T00:24:17.153Z,99151.44
2022-12-04T00:27:05.872Z,99155.44
2022-12-04T00:29:50.915Z,99161.59
2022-12-04T00:32:39.827Z,99168.88
2022-12-04T00:35:22.142Z,99174.38
2022-12-04T00:38:10.834Z,99169.50
2022-12-04T00:41:02.094Z,99168.16
2022-12-04T00:43:50.835Z,99170.84
2022-12-04T00:46:33.239Z,99171.66
2022-12-04T00:49:21.831Z,99167.22
2022-12-04T00:52:04.132Z,99170.91
2022-12-04T00:54:52.883Z,99178.81
2022-12-04T00:57:35.114Z,99174.94
2022-12-04T01:00:23.862Z,99175.53
2022-12-04T01:03:06.229Z,99176.31
2022-12-04T01:05:54.854Z,99181.03
2022-12-04T01:08:43.880Z,99176.97
2022-12-04T01:11:34.814Z,99181.97
2022-12-04T01:14:23.879Z,99182.09
2022-12-04T01:17:12.151Z,99182.31
2022-12-04T01:19:54.114Z,99178.56
2022-12-04T01:22:42.834Z,99180.56
2022-12-04T01:25:25.269Z,99177.66
2022-12-04T01:28:13.881Z,99185.41
2022-12-04T01:31:14.302Z,99176.16
2022-12-04T01:34:02.818Z,99191.41
2022-12-04T01:36:51.807Z,99192.63
2022-12-04T01:39:40.842Z,99193.66
2022-12-04T01:42:30.827Z,99196.91
2022-12-04T01:45:51.897Z,99196.22
2022-12-04T01:48:54.131Z,99203.38
2022-12-04T01:51:47.815Z,99207.13
2022-12-04T01:54:44.869Z,99204.06
2022-12-04T01:57:37.501Z,99200.19
2022-12-04T02:00:23.876Z,99201.72
2022-12-04T02:03:12.929Z,99202.44
2022-12-04T02:05:55.109Z,99215.03
2022-12-04T02:08:44.903Z,99212.03
2022-12-04T02:12:00.103Z,99203.03
2022-12-04T02:15:06.852Z,99203.63
2022-12-04T02:18:20.801Z,99213.06
2022-12-04T02:22:07.711Z,99223.81
2022-12-04T02:25:15.868Z,99226.94
2022-12-04T02:28:30.429Z,99226.28
2022-12-04T02:31:24.847Z,99239.28
2022-12-04T02:34:15.146Z,99243.84
2022-12-04T02:37:17.839Z,99248.66
2022-12-04T02:40:05.167Z,99255.06
2022-12-04T02:43:00.860Z,99251.00
2022-12-04T02:45:51.363Z,99249.44
2022-12-04T02:48:43.850Z,99252.56
2022-12-04T02:51:30.089Z,99260.88
2022-12-04T02:54:32.801Z,99258.63
2022-12-04T02:57:21.562Z,99265.59
2022-12-04T03:00:15.760Z,99272.91
2022-12-04T03:03:15.790Z,99273.97
2022-12-04T03:06:18.760Z,99271.63
2022-12-04T03:09:39.709Z,99285.50
2022-12-04T03:13:00.855Z,99290.91
2022-12-04T03:15:51.772Z,99280.94
2022-12-04T03:18:54.803Z,99282.94
2022-12-04T03:21:46.745Z,99284.03
2022-12-04T03:24:52.884Z,99294.06
2022-12-04T03:27:59.149Z,99294.75
2022-12-04T03:30:49.871Z,99299.03
2022-12-04T03:33:46.752Z,99298.44
2022-12-04T03:37:13.801Z,99305.63
2022-12-04T03:40:10.099Z,99299.91
2022-12-04T03:43:19.801Z,99304.28
2022-12-04T03:46:34.293Z,99310.03
2022-12-04T03:50:00.719Z,99311.13
2022-12-04T03:53:16.807Z,99311.94
2022-12-04T03:56:34.134Z,99321.28
2022-12-04T03:59:56.268Z,99319.16
2022-12-04T04:02:46.155Z,99327.91
2022-12-04T04:05:36.802Z,99321.63
2022-12-04T04:08:28.006Z,99332.00
2022-12-04T04:11:25.723Z,99327.09
2022-12-04T04:14:44.846Z,99330.06
2022-12-04T04:18:02.657Z,99334.44
2022-12-04T04:21:24.786Z,99328.84
2022-12-04T04:24:16.666Z,99331.44
2022-12-04T04:27:06.696Z,99330.22
2022-12-04T04:29:52.742Z,99329.16
2022-12-04T04:32:51.701Z,99324.75
2022-12-04T04:35:46.117Z,99326.78
2022-12-04T04:38:34.788Z,99325.97
2022-12-04T04:41:26.840Z,99331.97
2022-12-04T04:44:35.884Z,99333.09
2022-12-04T04:47:32.833Z,99351.13
2022-12-04T04:50:17.603Z,99346.75
2022-12-04T04:53:13.827Z,99352.78
2022-12-04T04:55:56.256Z,99351.94
2022-12-04T04:58:44.796Z,99351.69
2022-12-04T05:01:30.124Z,99348.41
2022-12-04T05:04:19.822Z,99347.84
2022-12-04T05:07:01.930Z,99349.75
2022-12-04T05:09:50.800Z,99356.28
2022-12-04T05:12:33.117Z,99361.53
2022-12-04T05:15:22.852Z,99360.97
2022-12-04T05:18:05.137Z,99371.34
2022-12-04T05:20:54.722Z,99356.63
2022-12-04T05:23:43.743Z,99349.50
2022-12-04T05:26:26.589Z,99351.69
2022-12-04T05:29:15.713Z,99340.75
2022-12-04T05:32:04.738Z,99354.41
2022-12-04T05:34:49.839Z,99349.47
2022-12-04T05:37:39.894Z,99343.16
2022-12-04T05:40:29.052Z,99343.84
2022-12-04T05:43:11.826Z,99339.19
2022-12-04T05:45:54.269Z,99337.41
2022-12-04T05:48:42.704Z,99325.13
2022-12-04T05:51:31.739Z,99333.97
2022-12-04T05:54:14.193Z,99324.63
2022-12-04T05:57:03.797Z,99319.34
2022-12-04T05:59:52.817Z,99315.19
2022-12-04T06:02:35.859Z,99311.28
2022-12-04T06:05:24.695Z,99308.31
2022-12-04T06:08:13.263Z,99302.91
2022-12-04T06:10:54.787Z,99303.22
2022-12-04T06:13:36.978Z,99306.16
2022-12-04T06:16:34.867Z,99292.19
2022-12-04T06:19:33.682Z,99281.13
2022-12-04T06:22:15.811Z,99285.59
2022-12-04T06:25:04.691Z,99275.31
2022-12-04T06:27:47.085Z,99272.19
2022-12-04T06:30:36.085Z,99261.44
2022-12-04T06:33:18.128Z,99261.94
2022-12-04T06:36:08.698Z,99257.91
2022-12-04T06:38:52.049Z,99256.94
2022-12-04T06:41:40.857Z,99247.16
2022-12-04T06:44:24.162Z,99248.91
2022-12-04T06:47:13.789Z,99231.66
2022-12-04T06:50:05.749Z,99231.50
2022-12-04T06:52:54.776Z,99223.56
2022-12-04T06:55:37.105Z,99218.50
2022-12-04T06:58:25.732Z,99223.16
2022-12-04T07:01:08.119Z,99219.44
2022-12-04T07:03:56.779Z,99212.16
2022-12-04T07:06:45.216Z,99215.16
2022-12-04T07:09:33.724Z,99198.97
2022-12-04T07:12:22.823Z,99199.88
2022-12-04T07:15:18.681Z,99192.16
2022-12-04T07:18:14.744Z,99190.88
2022-12-04T07:21:03.827Z,99177.63
2022-12-04T07:23:55.880Z,99180.44
2022-12-04T07:26:38.035Z,99163.03
2022-12-04T07:29:26.770Z,99173.84
2022-12-04T07:32:15.810Z,99161.13
2022-12-04T07:34:58.072Z,99158.69
2022-12-04T07:37:46.731Z,99153.00
2022-12-04T07:40:35.818Z,99148.53
2022-12-04T07:43:24.730Z,99139.84
2022-12-04T07:46:12.197Z,99124.47
2022-12-04T07:49:00.797Z,99119.56
2022-12-04T07:51:43.168Z,99114.53
2022-12-04T07:54:31.824Z,99110.09
2022-12-04T07:57:14.128Z,99097.44
2022-12-04T08:00:02.751Z,99097.19
2022-12-04T08:02:53.734Z,99087.94
2022-12-04T08:05:36.081Z,99080.16
2022-12-04T08:08:24.765Z,99076.75
2022-12-04T08:11:10.143Z,99074.34
2022-12-04T08:13:59.740Z,99061.13
2022-12-04T08:16:52.730Z,99058.31
2022-12-04T08:19:41.154Z,99059.63
2022-12-04T08:22:25.481Z,99053.09
2022-12-04T08:25:08.271Z,99047.16
2022-12-04T08:27:57.817Z,99044.66
2022-12-04T08:30:46.200Z,99048.59
2022-12-04T08:33:28.857Z,99043.41
2022-12-04T08:36:20.748Z,99038.81
2022-12-04T08:39:03.808Z,99040.38
2022-12-04T08:41:57.000Z,99029.16
2022-12-04T08:44:39.066Z,99021.03
2022-12-04T08:47:27.833Z,99009.00
2022-12-04T08:50:11.132Z,99007.81
2022-12-04T08:52:59.668Z,98999.59
2022-12-04T08:55:49.803Z,99000.06
2022-12-04T08:58:39.321Z,98986.16
2022-12-04T09:01:22.787Z,98988.63
2022-12-04T09:04:12.837Z,98992.53
2022-12-04T09:07:01.704Z,98986.59
2022-12-04T09:09:51.098Z,98981.91
2022-12-04T09:12:32.676Z,98975.25
2022-12-04T09:15:15.308Z,98974.53
2022-12-04T09:18:03.772Z,98972.66
2022-12-04T09:20:52.700Z,98975.72
2022-12-04T09:23:42.837Z,98972.72
2022-12-04T09:26:29.416Z,98968.28
2022-12-04T09:29:20.788Z,98964.16
2022-12-04T09:32:09.768Z,98959.19
2022-12-04T09:34:52.983Z,98962.53
2022-12-04T09:37:35.823Z,98940.25
2022-12-04T09:40:37.162Z,98948.22
2022-12-04T09:43:37.700Z,98944.44
2022-12-04T09:46:51.387Z,98939.72
2022-12-04T09:49:42.363Z,98947.41
2022-12-04T09:52:51.808Z,98942.50
2022-12-04T09:56:00.142Z,98947.84
2022-12-04T09:59:07.843Z,98947.53
2022-12-04T10:02:05.336Z,98950.47
2022-12-04T10:04:53.719Z,98946.28
2022-12-04T10:08:05.766Z,98941.50
2022-12-04T10:11:21.226Z,98939.19
2022-12-04T10:14:11.745Z,98935.75
2022-12-04T10:17:36.313Z,98930.41
2022-12-04T10:20:42.830Z,98924.91
2022-12-04T10:23:53.170Z,98922.28
2022-12-04T10:26:47.779Z,98923.31
2022-12-04T10:29:39.280Z,98924.84
2022-12-04T10:32:48.733Z,98924.03
2022-12-04T10:35:44.677Z,98920.09
2022-12-04T10:38:51.448Z,98923.03
2022-12-04T10:41:50.815Z,98912.75
2022-12-04T10:44:39.097Z,98922.97
2022-12-04T10:47:21.735Z,98914.06
2022-12-04T10:50:14.724Z,98917.22
2022-12-04T10:53:08.196Z,98913.75
2022-12-04T10:55:52.944Z,98911.56
2022-12-04T10:58:41.764Z,98910.25
2022-12-04T11:01:24.806Z,98903.50
2022-12-04T11:04:44.709Z,98903.31
2022-12-04T11:07:37.229Z,98894.44
2022-12-04T11:11:05.701Z,98902.19
2022-12-04T11:13:54.772Z,98913.81
2022-12-04T11:16:41.323Z,98911.81
2022-12-04T11:19:33.704Z,98909.16
2022-12-04T11:22:24.230Z,98912.03
2022-12-04T11:25:12.674Z,98903.91
2022-12-04T11:28:01.229Z,98909.47
2022-12-04T11:30:54.796Z,98907.06
2022-12-04T11:34:02.130Z,98904.16
2022-12-04T11:37:11.747Z,98901.50
2022-12-04T11:40:31.683Z,98904.56
2022-12-04T11:43:38.825Z,98905.44
2022-12-04T11:46:48.861Z,98905.47
2022-12-04T11:50:04.680Z,98911.25
2022-12-04T11:53:19.809Z,98904.72
2022-12-04T11:56:39.827Z,98911.03
2022-12-04T11:59:51.096Z,98905.59
2022-12-04T12:03:26.877Z,98902.38
2022-12-04T12:06:43.135Z,98902.66
2022-12-04T12:10:04.784Z,98906.75
2022-12-04T12:13:32.841Z,98901.88
2022-12-04T12:16:56.803Z,98901.34
2022-12-04T12:20:14.971Z,98910.31
2022-12-04T12:23:37.665Z,98904.88
2022-12-04T12:26:27.867Z,98910.34
2022-12-04T12:29:11.322Z,98908.41
2022-12-04T12:32:01.827Z,98908.44
2022-12-04T12:34:48.064Z,98915.78
2022-12-04T12:37:51.880Z,98910.84
2022-12-04T12:40:49.063Z,98922.84
2022-12-04T12:43:43.790Z,98920.69
2022-12-04T12:46:50.925Z,98930.47
2022-12-04T12:50:03.746Z,98932.91
2022-12-04T12:53:23.080Z,98932.84
2022-12-04T12:56:14.792Z,98932.28
2022-12-04T12:59:04.160Z,98939.88
2022-12-04T13:02:06.813Z,98933.84
2022-12-04T13:04:58.711Z,98952.91
2022-12-04T13:08:12.210Z,98951.25
2022-12-04T13:11:18.678Z,98948.16
2022-12-04T13:14:04.359Z,98953.31
2022-12-04T13:17:01.724Z,98958.69
2022-12-04T13:20:09.870Z,98957.06
2022-12-04T13:23:05.768Z,98959.22
2022-12-04T13:26:20.655Z,98961.94
2022-12-04T13:29:29.806Z,98963.56
2022-12-04T13:32:36.697Z,98963.56
2022-12-04T13:35:43.182Z,98973.09
2022-12-04T13:39:22.702Z,98977.94
2022-12-04T13:42:15.007Z,98972.19
2022-12-04T13:45:06.818Z,98983.59
2022-12-04T13:48:08.652Z,98986.25
2022-12-04T13:50:51.022Z,98993.84
2022-12-04T13:53:42.732Z,99004.63
2022-12-04T13:56:43.749Z,99005.28
2022-12-04T13:59:29.137Z,99010.94
2022-12-04T14:02:36.814Z,99015.00
2022-12-04T14:05:29.509Z,99018.81
2022-12-04T14:08:22.853Z,99018.75
2022-12-04T14:11:20.064Z,99018.50
2022-12-04T14:14:11.686Z,99024.69
2022-12-04T14:17:01.783Z,99029.06
2022-12-04T14:20:07.330Z,99030.81
2022-12-04T14:22:50.719Z,99040.25
2022-12-04T14:25:49.653Z,99034.88
2022-12-04T14:28:41.992Z,99047.44
2022-12-04T14:31:48.735Z,99042.53
2022-12-04T14:34:39.869Z,99042.41
2022-12-04T14:37:46.114Z,99050.00
2022-12-04T14:40:41.793Z,99056.53
2022-12-04T14:43:33.054Z,99067.09
2022-12-04T14:46:47.739Z,99059.75
2022-12-04T14:49:49.213Z,99058.00
2022-12-04T14:52:51.736Z,99060.59
2022-12-04T14:55:54.211Z,99060.03
2022-12-04T14:58:45.648Z,99066.03
2022-12-04T15:01:46.214Z,99070.66
2022-12-04T15:04:43.812Z,99077.53
2022-12-04T15:07:32.198Z,99073.94
2022-12-04T15:10:47.781Z,99070.94
2022-12-04T15:13:45.103Z,99063.50
2022-12-04T15:16:33.813Z,99066.91
2022-12-04T15:19:27.271Z,99083.59
2022-12-04T15:22:29.891Z,99082.09
2022-12-04T15:25:13.116Z,99086.41
2022-12-04T15:28:10.790Z,99087.22
2022-12-04T15:30:55.719Z,99075.41
2022-12-04T15:33:46.053Z,99080.75
2022-12-04T15:36:52.480Z,99086.63
2022-12-04T15:39:44.804Z,99090.41
2022-12-04T15:42:30.220Z,99089.72
2022-12-04T15:45:20.865Z,99086.09
2022-12-04T15:48:06.292Z,99091.13
2022-12-04T15:51:04.640Z,99086.78
2022-12-04T15:53:52.412Z,99092.59
2022-12-04T15:56:41.798Z,99087.16
2022-12-04T15:59:26.270Z,99094.56
2022-12-04T16:02:35.767Z,99102.91
2022-12-04T16:05:30.163Z,99108.13
2022-12-04T16:08:39.655Z,99110.38
2022-12-04T16:11:34.827Z,99108.09
2022-12-04T16:14:26.104Z,99117.41
2022-12-04T16:17:09.645Z,99115.63
2022-12-04T16:19:59.086Z,99113.84
2022-12-04T16:22:41.925Z,99115.97
2022-12-04T16:25:24.091Z,99115.00
2022-12-04T16:28:16.896Z,99107.69
2022-12-04T16:30:59.749Z,99114.81
2022-12-04T16:33:48.669Z,99115.34
2022-12-04T16:36:40.604Z,99115.16
2022-12-04T16:39:23.983Z,99128.00
2022-12-04T16:42:13.293Z,99122.16
2022-12-04T16:44:56.213Z,99123.47
2022-12-04T16:47:53.257Z,99126.91
2022-12-04T16:50:44.271Z,99119.63
2022-12-04T16:53:28.746Z,99117.63
2022-12-04T16:56:17.776Z,99117.22
2022-12-04T16:59:00.120Z,99125.84
2022-12-04T17:01:56.040Z,99123.22
2022-12-04T17:04:38.333Z,99125.75
2022-12-04T17:07:28.824Z,99129.56
2022-12-04T17:10:22.002Z,99127.31
2022-12-04T17:13:12.867Z,99132.19
2022-12-04T17:15:55.175Z,99132.25
2022-12-04T17:19:02.718Z,99140.41
2022-12-04T17:22:11.006Z,99142.19
2022-12-04T17:25:14.866Z,99137.81
2022-12-04T17:28:24.633Z,99147.16
2022-12-04T17:31:28.139Z,99147.38
2022-12-04T17:34:36.782Z,99154.13
2022-12-04T17:37:39.681Z,99153.78
2022-12-04T17:40:48.653Z,99156.16
2022-12-04T17:43:51.225Z,99153.06
2022-12-04T17:47:00.836Z,99158.88
2022-12-04T17:50:05.640Z,99158.88
2022-12-04T17:53:14.716Z,99158.41
2022-12-04T17:56:25.768Z,99155.50
2022-12-04T17:59:28.088Z,99152.97
2022-12-04T18:02:36.726Z,99158.97
2022-12-04T18:05:39.131Z,99158.25
2022-12-04T18:08:50.252Z,99158.59
2022-12-04T18:11:57.291Z,99161.88
2022-12-04T18:15:05.708Z,99155.69
2022-12-04T18:18:08.252Z,99154.13
2022-12-04T18:21:19.764Z,99152.34
2022-12-04T18:24:23.097Z,99153.56
2022-12-04T18:27:32.604Z,99160.59
2022-12-04T18:30:35.107Z,99165.22
2022-12-04T18:33:24.740Z,99156.50
2022-12-04T18:36:10.283Z,99165.59
2022-12-04T18:39:03.614Z,99164.78
2022-12-04T18:41:52.781Z,99156.44
2022-12-04T18:44:41.042Z,99161.00
2022-12-04T18:47:22.653Z,99159.03
2022-12-04T18:50:14.242Z,99159.72
2022-12-04T18:53:00.910Z,99169.28
2022-12-04T18:55:49.516Z,99161.97
2022-12-04T18:58:31.746Z,99164.56
2022-12-04T19:01:24.164Z,99157.66
2022-12-04T19:04:10.770Z,99162.66
2022-12-04T19:07:02.115Z,99155.69
2022-12-04T19:12:45.942Z,99162.94
2022-12-04T19:15:36.769Z,99168.25
2022-12-04T19:18:19.516Z,99167.78
2022-12-04T19:21:08.781Z,99173.19
2022-12-04T19:23:54.301Z,99169.56
2022-12-04T19:26:46.751Z,99164.59
2022-12-04T19:29:29.113Z,99162.13
2022-12-04T19:32:17.796Z,99161.06
2022-12-04T19:35:06.764Z,99159.69
2022-12-04T19:37:52.576Z,99151.44
2022-12-04T19:40:41.701Z,99146.72
2022-12-04T19:43:24.151Z,99142.97
2022-12-04T19:46:15.792Z,99152.63
2022-12-04T19:48:59.712Z,99142.50
2022-12-04T19:51:48.688Z,99139.34
2022-12-04T19:54:31.374Z,99148.19
2022-12-04T19:57:22.734Z,99146.44
2022-12-04T20:00:04.969Z,99147.25
2022-12-04T20:02:56.877Z,99147.34
2022-12-04T20:05:42.984Z,99138.66
2022-12-04T20:08:31.688Z,99139.72
2022-12-04T20:11:26.028Z,99139.38
2022-12-04T20:14:15.769Z,99136.66
2022-12-04T20:16:59.591Z,99135.50
2022-12-04T20:19:49.201Z,99129.38
2022-12-04T20:22:31.125Z,99127.59
2022-12-04T20:25:19.608Z,99129.59
2022-12-04T20:28:01.998Z,99126.06
2022-12-04T20:30:50.759Z,99134.75
2022-12-04T20:33:33.023Z,99133.47
2022-12-04T20:36:22.681Z,99136.66
2022-12-04T20:39:13.775Z,99144.44
2022-12-04T20:42:02.647Z,99139.69
2022-12-04T20:44:44.951Z,99153.81
2022-12-04T20:47:27.682Z,99143.94
2022-12-04T20:50:17.780Z,99137.59
2022-12-04T20:52:59.957Z,99139.25
2022-12-04T20:55:48.681Z,99132.88
2022-12-04T20:58:30.984Z,99128.75
2022-12-04T21:01:22.678Z,99135.47
2022-12-04T21:04:15.010Z,99137.38
2022-12-04T21:07:03.642Z,99139.94
2022-12-04T21:09:52.615Z,99137.91
2022-12-04T21:12:53.270Z,99139.00
2022-12-04T21:15:59.602Z,99129.63
2022-12-04T21:18:41.898Z,99135.13
2022-12-04T21:21:32.043Z,99133.13
2022-12-04T21:24:22.978Z,99138.53
2022-12-04T21:27:05.690Z,99135.69
2022-12-04T21:29:54.816Z,99132.78
2022-12-04T21:32:36.992Z,99133.34
2022-12-04T21:35:25.625Z,99136.19
2022-12-04T21:38:08.021Z,99130.88
2022-12-04T21:40:57.673Z,99135.69
2022-12-04T21:43:40.990Z,99134.47
2022-12-04T21:46:22.753Z,99136.78
2022-12-04T21:49:05.350Z,99138.84
2022-12-04T21:51:58.115Z,99129.69
2022-12-04T21:54:40.920Z,99139.94
2022-12-04T21:57:29.792Z,99126.28
2022-12-04T22:00:12.432Z,99130.88
2022-12-04T22:03:01.643Z,99128.84
2022-12-04T22:05:44.704Z,99129.91
2022-12-04T22:08:33.772Z,99135.69
2022-12-04T22:11:18.939Z,99137.09
2022-12-04T22:14:07.783Z,99138.84
2022-12-04T22:16:53.066Z,99139.13
2022-12-04T22:19:41.678Z,99137.34
2022-12-04T22:22:24.035Z,99144.03
2022-12-04T22:25:12.617Z,99146.16
2022-12-04T22:28:01.602Z,99138.75
2022-12-04T22:30:43.995Z,99136.28
2022-12-04T22:33:32.653Z,99142.06
2022-12-04T22:36:18.013Z,99158.00
2022-12-04T22:39:15.720Z,99152.97
2022-12-04T22:42:04.567Z,99149.78
2022-12-04T22:44:47.167Z,99146.38
2022-12-04T22:47:35.765Z,99147.91
2022-12-04T22:50:19.033Z,99157.31
2022-12-04T22:53:07.576Z,99152.00
2022-12-04T22:55:49.963Z,99149.06
2022-12-04T22:58:38.719Z,99143.81
2022-12-04T23:01:24.055Z,99148.41
2022-12-04T23:04:13.725Z,99145.56
2022-12-04T23:06:56.037Z,99143.66
2022-12-04T23:09:44.767Z,99138.03
2022-12-04T23:12:28.651Z,99141.94
2022-12-04T23:15:17.711Z,99146.59
2022-12-04T23:17:59.936Z,99146.50
2022-12-04T23:20:48.741Z,99148.81
2022-12-04T23:23:30.980Z,99149.25
2022-12-04T23:26:22.718Z,99143.41
2022-12-04T23:29:23.399Z,99143.72
2022-12-04T23:32:16.028Z,99141.75
2022-12-04T23:34:58.071Z,99145.16
2022-12-04T23:37:46.618Z,99144.50
2022-12-04T23:40:28.938Z,99142.28
2022-12-04T23:43:17.566Z,99145.13
2022-12-04T23:45:59.935Z,99148.38
2022-12-04T23:48:49.718Z,99142.28
2022-12-04T23:51:32.933Z,99150.75
2022-12-04T23:54:21.702Z,99150.38
2022-12-04T23:57:10.628Z,99155.25
2022-12-04T23:59:54.357Z,99159.66
